.
WxDataArchive / Data Records for 2006-12-08
2006-12-07 December 2006 2006-12-09

Data Records for Friday, 08 December 2006

Time	Temp	Chill	HIndex	Humid	Dewpt	 Wind 	HiWind	WindDir	Rain 	Barom 
-----	----	-----	------	-----	-----	------	------	-------	-----	----- 
00:00	11.4	11.4	11.4	71	3.9	0	3	248	0.00	30.541 
00:05	11.4	11.4	11.4	71	3.9	1	4	248	0.00	30.541 
00:10	11.4	11.4	11.4	71	3.9	1	4	248	0.00	30.541 
00:15	11.2	11.2	11.2	71	3.7	1	6	248	0.00	30.542 
00:20	11.2	11.2	11.2	71	3.7	1	7	248	0.00	30.542 
00:25	11.1	11.1	11.1	71	3.6	1	6	248	0.00	30.542 
00:30	10.9	10.9	10.9	71	3.4	1	6	248	0.00	30.547 
00:35	10.7	10.7	10.7	71	3.2	1	3	248	0.00	30.547 
00:40	10.7	10.7	10.7	71	3.2	1	4	248	0.00	30.547 
00:45	10.7	10.7	10.7	71	3.2	1	4	270	0.00	30.548 
00:50	10.7	10.7	10.7	72	3.5	1	5	248	0.00	30.548 
00:55	10.7	10.7	10.7	72	3.5	1	6	248	0.00	30.548 
01:00	10.9	10.9	10.9	71	3.4	2	7	248	0.00	30.545 
01:05	11.1	11.1	11.1	72	3.9	1	5	270	0.00	30.545 
01:10	11.2	11.2	11.2	72	4.0	1	3	248	0.00	30.545 
01:15	11.2	11.2	11.2	72	4.0	1	5	270	0.00	30.547 
01:20	11.2	11.2	11.2	71	3.7	1	4	270	0.00	30.547 
01:25	11.2	11.2	11.2	71	3.7	1	4	248	0.00	30.547 
01:30	11.1	11.1	11.1	71	3.6	2	9	270	0.00	30.548 
01:35	11.1	11.1	11.1	71	3.6	2	7	248	0.00	30.548 
01:40	10.9	10.9	10.9	71	3.4	2	6	248	0.00	30.548 
01:45	11.1	11.1	11.1	71	3.6	1	5	270	0.00	30.549 
01:50	11.1	11.1	11.1	71	3.6	1	5	248	0.00	30.549 
01:55	11.2	11.2	11.2	71	3.7	2	10	248	0.00	30.549 
02:00	11.4	11.4	11.4	71	3.9	2	5	270	0.00	30.550 
02:05	11.4	11.4	11.4	71	3.9	2	7	248	0.00	30.550 
02:10	11.6	11.6	11.6	71	4.0	1	9	248	0.00	30.550 
02:15	11.6	11.6	11.6	71	4.0	1	5	270	0.00	30.551 
02:20	11.6	11.6	11.6	71	4.0	1	5	248	0.00	30.551 
02:25	11.6	11.6	11.6	71	4.0	1	5	248	0.00	30.551 
02:30	11.6	11.6	11.6	71	4.0	3	10	270	0.00	30.553 
02:35	11.6	11.6	11.6	70	3.7	3	12	270	0.00	30.553 
02:40	11.6	11.6	11.6	71	4.0	3	13	270	0.00	30.553 
02:45	11.6	11.6	11.6	71	4.0	2	4	270	0.00	30.554 
02:50	11.6	11.6	11.6	71	4.0	3	7	248	0.00	30.554 
02:55	11.4	11.4	11.4	71	3.9	3	11	248	0.00	30.554 
03:00	11.4	11.4	11.4	71	3.9	3	10	248	0.00	30.557 
03:05	11.4	11.4	11.4	71	3.9	2	9	270	0.00	30.557 
03:10	11.4	11.4	11.4	71	3.9	2	6	270	0.00	30.557 
03:15	11.4	11.4	11.4	72	4.2	1	5	270	0.00	30.559 
03:20	11.4	11.4	11.4	72	4.2	1	4	248	0.00	30.559 
03:25	11.4	11.4	11.4	72	4.2	1	6	270	0.00	30.559 
03:30	11.4	11.4	11.4	73	4.5	2	6	270	0.00	30.560 
03:35	11.4	11.4	11.4	73	4.5	1	7	248	0.00	30.560 
03:40	11.6	11.6	11.6	73	4.7	1	4	270	0.00	30.560 
03:45	11.6	11.6	11.6	73	4.7	2	5	248	0.00	30.555 
03:50	11.6	11.6	11.6	73	4.7	2	6	270	0.00	30.555 
03:55	11.6	11.6	11.6	73	4.7	1	6	270	0.00	30.555 
04:00	11.6	11.6	11.6	73	4.7	2	6	270	0.00	30.553 
04:05	11.7	11.7	11.7	73	4.7	2	10	270	0.00	30.553 
04:10	11.7	11.7	11.7	73	4.7	1	4	248	0.00	30.553 
04:15	11.7	11.7	11.7	73	4.7	2	7	270	0.00	30.552 
04:20	11.7	11.7	11.7	73	4.7	1	5	270	0.00	30.552 
04:25	11.9	11.9	11.9	74	5.2	0	4	270	0.00	30.552 
04:30	11.9	11.9	11.9	74	5.2	1	4	248	0.00	30.553 
04:35	12.1	12.1	12.1	74	5.4	1	4	248	0.00	30.553 
04:40	12.3	12.3	12.3	74	5.6	1	5	248	0.00	30.553 
04:45	12.3	12.3	12.3	73	5.3	2	6	270	0.00	30.552 
04:50	12.3	12.3	12.3	73	5.3	1	4	248	0.00	30.552 
04:55	12.3	12.3	12.3	73	5.3	2	6	248	0.00	30.552 
05:00	12.1	12.1	12.1	73	5.1	1	4	248	0.00	30.550 
05:05	12.1	12.1	12.1	73	5.1	2	7	270	0.00	30.550 
05:10	12.1	12.1	12.1	73	5.1	2	9	248	0.00	30.550 
05:15	12.1	12.1	12.1	73	5.1	1	4	248	0.00	30.550 
05:20	12.1	12.1	12.1	73	5.1	1	5	248	0.00	30.550 
05:25	12.1	12.1	12.1	73	5.1	2	9	248	0.00	30.550 
05:30	12.1	12.1	12.1	73	5.1	2	7	248	0.00	30.551 
05:35	12.1	12.1	12.1	73	5.1	2	6	270	0.00	30.551 
05:40	12.1	12.1	12.1	73	5.1	1	5	248	0.00	30.551 
05:45	12.1	12.1	12.1	73	5.1	2	9	248	0.00	30.553 
05:50	11.9	11.9	11.9	73	4.9	1	5	248	0.00	30.553 
05:55	11.7	11.7	11.7	72	4.4	3	10	270	0.00	30.553 
06:00	11.4	11.4	11.4	72	4.2	1	4	248	0.00	30.552 
06:05	11.2	11.2	11.2	73	4.3	2	4	248	0.00	30.552 
06:10	10.9	10.9	10.9	73	4.0	2	7	248	0.00	30.552 
06:15	10.7	10.7	10.7	73	3.8	1	6	248	0.00	30.557 
06:20	10.5	10.5	10.5	73	3.6	1	5	248	0.00	30.557 
06:25	10.5	10.5	10.5	73	3.6	1	5	248	0.00	30.557 
06:30	10.4	10.4	10.4	73	3.5	1	5	248	0.00	30.554 
06:35	10.2	10.2	10.2	73	3.3	1	5	248	0.00	30.554 
06:40	10.2	10.2	10.2	74	3.6	2	7	248	0.00	30.554 
06:45	10.0	10.0	10.0	74	3.4	2	7	270	0.00	30.555 
06:50	10.0	10.0	10.0	74	3.4	1	6	248	0.00	30.555 
06:55	9.9	9.9	9.9	74	3.3	1	5	248	0.00	30.555 
07:00	9.9	9.9	9.9	74	3.3	1	5	248	0.00	30.563 
07:05	9.9	9.9	9.9	74	3.3	1	5	248	0.00	30.563 
07:10	10.0	10.0	10.0	75	3.7	1	5	248	0.00	30.563 
07:15	10.2	10.2	10.2	75	3.9	1	6	248	0.00	30.573 
07:20	10.2	10.2	10.2	74	3.6	1	3	248	0.00	30.573 
07:25	10.4	10.4	10.4	74	3.8	1	5	248	0.00	30.573 
07:30	10.4	10.4	10.4	74	3.8	1	7	248	0.00	30.573 
07:35	10.5	10.5	10.5	73	3.6	1	4	270	0.00	30.573 
07:40	10.4	10.4	10.4	73	3.5	2	7	270	0.00	30.573 
07:45	10.2	10.2	10.2	73	3.3	2	10	270	0.00	30.574 
07:50	10.2	10.2	10.2	73	3.3	1	4	270	0.00	30.574 
07:55	10.2	10.2	10.2	73	3.3	1	5	270	0.00	30.574 
08:00	10.0	10.0	10.0	73	3.1	2	7	248	0.00	30.574 
08:05	10.0	10.0	10.0	73	3.1	2	7	270	0.00	30.574 
08:10	10.2	10.2	10.2	73	3.3	1	5	270	0.00	30.574 
08:15	10.2	10.2	10.2	73	3.3	2	5	248	0.00	30.581 
08:20	10.2	10.2	10.2	73	3.3	2	6	270	0.00	30.581 
08:25	10.4	10.4	10.4	73	3.5	2	6	270	0.00	30.581 
08:30	10.5	10.5	10.5	73	3.6	2	9	270	0.00	30.582 
08:35	10.7	10.7	10.7	73	3.8	1	4	248	0.00	30.582 
08:40	10.7	10.7	10.7	73	3.8	2	7	248	0.00	30.582 
08:45	10.7	10.7	10.7	73	3.8	2	9	248	0.00	30.585 
08:50	10.9	10.9	10.9	73	4.0	1	4	248	0.00	30.585 
08:55	10.9	10.9	10.9	73	4.0	1	5	248	0.00	30.585 
09:00	11.1	11.1	11.1	72	3.9	2	4	248	0.00	30.587 
09:05	11.2	11.2	11.2	72	4.0	2	7	248	0.00	30.587 
09:10	11.4	11.4	11.4	72	4.2	1	6	248	0.00	30.587 
09:15	11.4	11.4	11.4	72	4.2	1	5	248	0.00	30.585 
09:20	11.6	11.6	11.6	72	4.4	1	2	270	0.00	30.585 
09:25	11.9	11.9	11.9	72	4.6	1	6	248	0.00	30.585 
09:30	12.1	12.1	12.1	71	4.5	1	5	248	0.00	30.586 
09:35	12.3	12.3	12.3	71	4.7	2	5	270	0.00	30.586 
09:40	12.4	12.4	12.4	71	4.8	2	9	270	0.00	30.586 
09:45	12.6	12.6	12.6	70	4.7	1	5	248	0.00	30.587 
09:50	12.9	12.9	12.9	70	5.0	1	6	270	0.00	30.587 
09:55	13.5	13.5	13.5	69	5.3	1	5	248	0.00	30.587 
10:00	13.8	13.8	13.8	69	5.5	1	3	248	0.00	30.585 
10:05	14.1	14.1	14.1	68	5.5	1	4	270	0.00	30.585 
10:10	14.3	14.3	14.3	69	6.0	1	5	248	0.00	30.585 
10:15	14.6	14.6	14.6	68	6.0	1	4	270	0.00	30.590 
10:20	14.8	14.8	14.8	68	6.2	1	7	248	0.00	30.590 
10:25	15.1	15.1	15.1	68	6.5	1	2	270	0.00	30.590 
10:30	15.4	15.4	15.4	68	6.8	1	5	248	0.00	30.588 
10:35	15.7	15.7	15.7	67	6.7	1	4	248	0.00	30.588 
10:40	16.1	16.1	16.1	68	7.4	1	4	248	0.00	30.588 
10:45	16.2	16.2	16.2	66	6.9	2	6	270	0.00	30.587 
10:50	16.7	16.7	16.7	68	8.0	1	3	248	0.00	30.587 
10:55	17.0	17.0	17.0	66	7.6	1	5	270	0.00	30.587 
11:00	17.3	17.3	17.3	66	7.9	1	4	270	0.00	30.585 
11:05	17.5	17.5	17.5	65	7.8	2	6	248	0.00	30.585 
11:10	17.5	17.5	17.5	66	8.1	2	7	248	0.00	30.585 
11:15	18.0	18.0	18.0	65	8.3	1	4	248	0.00	30.584 
11:20	18.4	18.4	18.4	66	9.0	2	4	248	0.00	30.584 
11:25	18.6	18.6	18.6	64	8.5	3	9	270	0.00	30.584 
11:30	18.6	18.6	18.6	64	8.5	2	9	270	0.00	30.581 
11:35	19.1	19.1	19.1	62	8.3	2	9	248	0.00	30.581 
11:40	19.5	19.5	19.5	61	8.3	1	4	248	0.00	30.581 
11:45	19.5	19.5	19.5	60	7.9	1	6	248	0.00	30.568 
11:50	20.0	20.0	20.0	61	8.7	1	3	248	0.00	30.568 
11:55	19.9	19.9	19.9	59	7.9	2	9	248	0.00	30.568 
12:00	20.0	20.0	20.0	58	7.6	2	9	248	0.00	30.565 
12:05	19.7	19.7	19.7	58	7.3	2	11	248	0.00	30.565 
12:10	19.7	19.7	19.7	57	7.0	2	7	248	0.00	30.565 
12:15	20.0	20.0	20.0	58	7.6	3	9	248	0.00	30.555 
12:20	20.3	20.3	20.3	54	6.3	2	5	248	0.00	30.555 
12:25	20.6	20.6	20.6	54	6.6	2	6	248	0.00	30.555 
12:30	20.8	20.8	20.8	52	6.0	2	6	248	0.00	30.549 
12:35	20.6	20.6	20.6	50	4.9	3	9	248	0.00	30.549 
12:40	21.0	21.0	21.0	55	7.4	1	5	248	0.00	30.549 
12:45	21.0	21.0	21.0	52	6.2	2	9	248	0.00	30.539 
12:50	21.0	21.0	21.0	50	5.3	2	7	270	0.00	30.539 
12:55	21.3	21.3	21.3	50	5.6	2	6	248	0.00	30.539 
13:00	21.3	21.3	21.3	50	5.6	2	7	248	0.00	30.536 
13:05	21.4	21.4	21.4	50	5.7	2	6	248	0.00	30.536 
13:10	21.6	21.6	21.6	50	5.9	3	9	248	0.00	30.536 
13:15	21.8	21.8	21.8	48	5.2	3	10	248	0.00	30.532 
13:20	21.8	21.8	21.8	49	5.6	2	6	248	0.00	30.532 
13:25	21.9	21.9	21.9	48	5.3	3	9	270	0.00	30.532 
13:30	21.9	21.9	21.9	48	5.3	3	9	248	0.00	30.520 
13:35	22.4	22.4	22.4	47	5.3	2	10	270	0.00	30.520 
13:40	22.7	22.7	22.7	46	5.1	2	7	270	0.00	30.520 
13:45	22.9	22.9	22.9	46	5.2	2	6	248	0.00	30.518 
13:50	23.0	23.0	23.0	48	6.3	2	5	248	0.00	30.518 
13:55	23.3	23.3	23.3	46	5.6	3	9	248	0.00	30.518 
14:00	23.2	17.9	23.2	41	3.0	4	12	248	0.00	30.515 
14:05	23.5	23.5	23.5	44	4.8	2	7	270	0.00	30.515 
14:10	23.8	23.8	23.8	44	5.1	2	5	248	0.00	30.515 
14:15	23.9	23.9	23.9	46	6.2	2	5	248	0.00	30.504 
14:20	24.1	24.1	24.1	46	6.3	2	6	270	0.00	30.504 
14:25	23.8	18.6	23.8	45	5.6	4	11	248	0.00	30.504 
14:30	23.8	23.8	23.8	45	5.6	2	7	248	0.00	30.492 
14:35	23.9	23.9	23.9	45	5.7	3	9	248	0.00	30.492 
14:40	23.8	18.6	23.8	45	5.6	4	12	270	0.00	30.492 
14:45	23.8	23.8	23.8	45	5.6	3	10	248	0.00	30.485 
14:50	24.1	24.1	24.1	46	6.3	3	10	248	0.00	30.485 
14:55	24.2	24.2	24.2	44	5.5	2	9	270	0.00	30.485 
15:00	24.4	24.4	24.4	45	6.1	2	7	248	0.00	30.481 
15:05	24.5	24.5	24.5	46	6.7	2	5	248	0.00	30.481 
15:10	24.5	24.5	24.5	46	6.7	1	4	248	0.00	30.481 
15:15	24.7	24.7	24.7	44	5.9	2	5	248	0.00	30.467 
15:20	24.5	24.5	24.5	45	6.2	3	9	248	0.00	30.467 
15:25	24.4	24.4	24.4	44	5.7	3	7	248	0.00	30.467 
15:30	24.4	24.4	24.4	45	6.1	2	9	248	0.00	30.469 
15:35	24.7	24.7	24.7	45	6.4	2	7	248	0.00	30.469 
15:40	24.8	24.8	24.8	44	6.0	3	9	248	0.00	30.469 
15:45	24.8	24.8	24.8	45	6.5	3	7	248	0.00	30.470 
15:50	24.7	24.7	24.7	46	6.9	3	7	248	0.00	30.470 
15:55	24.4	24.4	24.4	46	6.6	3	9	248	0.00	30.470 
16:00	24.1	24.1	24.1	47	6.8	3	6	248	0.00	30.468 
16:05	24.1	24.1	24.1	48	7.3	2	4	248	0.00	30.468 
16:10	23.9	23.9	23.9	48	7.1	2	6	248	0.00	30.468 
16:15	23.6	23.6	23.6	49	7.3	2	5	248	0.00	30.465 
16:20	23.5	23.5	23.5	48	6.7	2	9	248	0.00	30.465 
16:25	23.3	23.3	23.3	48	6.5	3	7	248	0.00	30.465 
16:30	23.2	23.2	23.2	49	6.9	3	11	270	0.00	30.467 
16:35	23.2	23.2	23.2	49	6.9	2	6	248	0.00	30.467 
16:40	23.0	23.0	23.0	51	7.6	2	7	248	0.00	30.467 
16:45	22.9	22.9	22.9	51	7.5	2	9	248	0.00	30.459 
16:50	22.7	22.7	22.7	53	8.2	1	4	248	0.00	30.459 
16:55	22.5	22.5	22.5	53	8.0	1	3	225	0.00	30.459 
17:00	22.4	22.4	22.4	52	7.5	2	10	248	0.00	30.452 
17:05	22.4	22.4	22.4	51	7.0	2	10	248	0.00	30.452 
17:10	22.2	22.2	22.2	51	6.9	2	9	248	0.00	30.452 
17:15	22.2	22.2	22.2	51	6.9	1	4	248	0.00	30.455 
17:20	22.2	22.2	22.2	52	7.3	2	5	248	0.00	30.455 
17:25	22.1	22.1	22.1	52	7.2	2	6	248	0.00	30.455 
17:30	22.1	22.1	22.1	52	7.2	2	5	248	0.00	30.459 
17:35	22.1	22.1	22.1	52	7.2	2	7	248	0.00	30.459 
17:40	22.1	22.1	22.1	51	6.8	3	11	248	0.00	30.459 
17:45	21.9	21.9	21.9	52	7.0	3	10	248	0.00	30.461 
17:50	21.9	21.9	21.9	52	7.0	2	8	248	0.00	30.461 
17:55	21.8	21.8	21.8	52	6.9	2	7	248	0.00	30.461 
18:00	21.8	21.8	21.8	52	6.9	2	6	248	0.00	30.457 
18:05	21.8	21.8	21.8	53	7.3	1	4	248	0.00	30.457 
18:10	21.6	21.6	21.6	53	7.1	1	3	248	0.00	30.457 
18:15	21.6	21.6	21.6	53	7.1	1	3	248	0.00	30.455 
18:20	21.6	21.6	21.6	53	7.1	2	5	248	0.00	30.455 
18:25	21.6	21.6	21.6	53	7.1	1	7	248	0.00	30.455 
18:30	21.4	21.4	21.4	54	7.4	1	4	248	0.00	30.461 
18:35	21.4	21.4	21.4	54	7.4	1	6	270	0.00	30.461 
18:40	21.6	21.6	21.6	54	7.6	3	7	248	0.00	30.461 
18:45	21.6	21.6	21.6	54	7.6	2	6	248	0.00	30.453 
18:50	21.4	21.4	21.4	54	7.4	1	5	248	0.00	30.453 
18:55	21.4	21.4	21.4	54	7.4	2	9	248	0.00	30.453 
19:00	21.4	21.4	21.4	55	7.8	1	5	248	0.00	30.441 
19:05	21.4	21.4	21.4	55	7.8	2	6	248	0.00	30.441 
19:10	21.4	21.4	21.4	55	7.8	1	5	248	0.00	30.441 
19:15	21.4	21.4	21.4	55	7.8	2	6	248	0.00	30.452 
19:20	21.6	21.6	21.6	54	7.6	2	6	248	0.00	30.452 
19:25	21.6	21.6	21.6	55	8.0	1	5	248	0.00	30.452 
19:30	21.6	21.6	21.6	55	8.0	1	5	248	0.00	30.442 
19:35	21.6	21.6	21.6	55	8.0	1	6	248	0.00	30.442 
19:40	21.8	21.8	21.8	55	8.1	2	6	248	0.00	30.442 
19:45	21.8	21.8	21.8	55	8.1	2	7	270	0.00	30.442 
19:50	21.9	21.9	21.9	56	8.6	2	5	248	0.00	30.442 
19:55	21.9	21.9	21.9	55	8.2	2	7	248	0.00	30.442 
20:00	22.1	22.1	22.1	55	8.4	2	9	248	0.00	30.441 
20:05	22.2	22.2	22.2	55	8.5	2	9	248	0.00	30.441 
20:10	22.2	22.2	22.2	55	8.5	2	5	248	0.00	30.441 
20:15	22.2	22.2	22.2	55	8.5	2	7	248	0.00	30.444 
20:20	22.4	22.4	22.4	55	8.7	3	13	270	0.00	30.444 
20:25	22.4	22.4	22.4	55	8.7	2	9	248	0.00	30.444 
20:30	22.4	22.4	22.4	56	9.1	2	11	248	0.00	30.439 
20:35	22.4	22.4	22.4	55	8.7	2	6	248	0.00	30.439 
20:40	22.5	22.5	22.5	55	8.8	2	6	248	0.00	30.439 
20:45	22.5	22.5	22.5	55	8.8	3	7	248	0.00	30.428 
20:50	22.5	22.5	22.5	55	8.8	3	12	270	0.00	30.428 
20:55	22.5	22.5	22.5	55	8.8	2	6	248	0.00	30.428 
21:00	22.5	22.5	22.5	56	9.2	2	6	248	0.00	30.424 
21:05	22.5	22.5	22.5	55	8.8	3	9	248	0.00	30.424 
21:10	22.5	22.5	22.5	55	8.8	3	14	270	0.00	30.424 
21:15	22.5	22.5	22.5	54	8.4	3	10	248	0.00	30.423 
21:20	22.5	22.5	22.5	55	8.8	2	9	248	0.00	30.423 
21:25	22.5	22.5	22.5	55	8.8	2	7	248	0.00	30.423 
21:30	22.7	22.7	22.7	54	8.6	2	4	248	0.00	30.411 
21:35	22.7	22.7	22.7	54	8.6	2	6	248	0.00	30.411 
21:40	22.9	22.9	22.9	54	8.8	2	5	248	0.00	30.411 
21:45	23.0	17.7	23.0	53	8.4	4	10	248	0.00	30.400 
21:50	23.0	23.0	23.0	53	8.4	3	10	270	0.00	30.400 
21:55	23.0	23.0	23.0	53	8.4	3	12	248	0.00	30.400 
22:00	23.2	23.2	23.2	54	9.1	2	6	248	0.00	30.403 
22:05	23.2	23.2	23.2	54	9.1	2	6	248	0.00	30.403 
22:10	23.2	23.2	23.2	53	8.6	3	12	270	0.00	30.403 
22:15	23.2	23.2	23.2	53	8.6	3	10	248	0.00	30.400 
22:20	23.3	18.0	23.3	52	8.3	4	13	270	0.00	30.400 
22:25	23.3	23.3	23.3	53	8.7	3	7	248	0.00	30.400 
22:30	23.3	18.0	23.3	53	8.7	4	10	270	0.00	30.399 
22:35	23.3	23.3	23.3	53	8.7	3	7	248	0.00	30.399 
22:40	23.3	23.3	23.3	53	8.7	3	11	270	0.00	30.399 
22:45	23.3	18.0	23.3	53	8.7	4	11	248	0.00	30.400 
22:50	23.3	16.9	23.3	53	8.7	5	11	248	0.00	30.400 
22:55	23.2	23.2	23.2	53	8.6	3	7	270	0.00	30.400 
23:00	23.2	17.9	23.2	53	8.6	4	11	248	0.00	30.396 
23:05	23.0	23.0	23.0	54	8.9	3	10	248	0.00	30.396 
23:10	23.0	17.7	23.0	54	8.9	4	12	248	0.00	30.396 
23:15	22.9	17.6	22.9	54	8.8	4	11	270	0.00	30.388 
23:20	22.9	17.6	22.9	54	8.8	4	12	248	0.00	30.388 
23:25	22.9	17.6	22.9	54	8.8	4	9	248	0.00	30.388 
23:30	22.7	22.7	22.7	54	8.6	3	9	248	0.00	30.380 
23:35	22.7	22.7	22.7	55	9.0	3	10	248	0.00	30.380 
23:40	22.5	17.1	22.5	55	8.8	4	11	270	0.00	30.380 
23:45	22.5	22.5	22.5	56	9.2	3	9	270	0.00	30.380 
23:50	22.4	22.4	22.4	56	9.1	3	12	248	0.00	30.380 
23:55	22.4	22.4	22.4	56	9.1	3	9	248	0.00	30.380 

CoCoRaHS
IN-AL-39
A2 Web Hosting
Creative Commons License
GoDaddy
Look for:

loaded 2017-10-17 22:25:49 • last modified 2010-11-18 10:43:29
Privacy PolicyDisclaimer
• wx.awcolley.com is powered by PmWiki v.2002016 •
• all content (unless otherwise noted) © 2017 A W Colley